createdAt,value
2019-05-09T00:00:58.587Z,69.22
2019-05-09T00:02:03.399Z,70.39
2019-05-09T00:03:07.113Z,70.57
2019-05-09T00:04:13.751Z,69.88
2019-05-09T00:05:15.937Z,70.18
2019-05-09T00:06:20.246Z,70.38
2019-05-09T00:07:24.586Z,68.94
2019-05-09T00:08:28.899Z,70.46
2019-05-09T00:09:33.632Z,70.98
2019-05-09T00:10:41.572Z,70.76
2019-05-09T00:11:43.853Z,70.41
2019-05-09T00:12:46.225Z,70.23
2019-05-09T00:13:50.593Z,70.88
2019-05-09T00:14:54.892Z,70.89
2019-05-09T00:15:59.336Z,70.94
2019-05-09T00:17:03.903Z,71.23
2019-05-09T00:18:07.980Z,70.63
2019-05-09T00:19:13.571Z,71.37
2019-05-09T00:20:16.646Z,71.67
2019-05-09T00:21:20.958Z,71.49
2019-05-09T00:22:25.346Z,70.03
2019-05-09T00:23:29.671Z,72.40
2019-05-09T00:24:34.040Z,72.12
2019-05-09T00:25:38.265Z,72.56
2019-05-09T00:26:44.226Z,71.72
2019-05-09T00:27:46.980Z,71.07
2019-05-09T00:28:53.245Z,72.91
2019-05-09T00:29:55.641Z,73.02
2019-05-09T00:30:59.907Z,73.64
2019-05-09T00:32:04.273Z,73.09
2019-05-09T00:33:08.590Z,74.16
2019-05-09T00:34:14.363Z,74.55
2019-05-09T00:35:17.294Z,74.90
2019-05-09T00:36:23.187Z,74.74
2019-05-09T00:37:25.934Z,75.20
2019-05-09T00:38:30.259Z,75.41
2019-05-09T00:39:34.534Z,75.53
2019-05-09T00:40:53.055Z,74.78
2019-05-09T00:41:43.605Z,75.67
2019-05-09T00:42:47.391Z,75.85
2019-05-09T00:43:54.164Z,75.84
2019-05-09T00:44:56.085Z,76.04
2019-05-09T00:46:00.390Z,75.18
2019-05-09T00:47:04.760Z,74.50
2019-05-09T00:48:09.058Z,74.98
2019-05-09T00:49:14.058Z,73.80
2019-05-09T00:50:17.675Z,73.51
2019-05-09T00:51:23.274Z,74.94
2019-05-09T00:52:26.459Z,75.94
2019-05-09T00:53:30.730Z,73.78
2019-05-09T00:54:35.012Z,76.13
2019-05-09T00:55:39.343Z,74.66
2019-05-09T00:56:43.744Z,74.03
2019-05-09T00:57:48.030Z,73.53
2019-05-09T00:58:53.533Z,73.31
2019-05-09T00:59:56.656Z,75.18
2019-05-09T01:01:00.986Z,75.71
2019-05-09T01:02:05.247Z,74.38
2019-05-09T01:03:09.625Z,74.15
2019-05-09T01:04:13.965Z,75.27
2019-05-09T01:05:18.294Z,76.26
2019-05-09T01:06:24.049Z,78.27
2019-05-09T01:07:26.920Z,76.31
2019-05-09T01:08:33.352Z,76.59
2019-05-09T01:09:35.349Z,76.95
2019-05-09T01:10:39.748Z,75.61
2019-05-09T01:11:44.182Z,75.75
2019-05-09T01:12:48.337Z,76.68
2019-05-09T01:13:54.308Z,76.22
2019-05-09T01:14:57.088Z,75.62
2019-05-09T01:16:01.366Z,76.37
2019-05-09T01:17:05.677Z,75.56
2019-05-09T01:18:09.931Z,76.05
2019-05-09T01:19:14.319Z,75.61
2019-05-09T01:20:18.621Z,75.76
2019-05-09T01:21:24.064Z,74.61
2019-05-09T01:22:27.160Z,74.99
2019-05-09T01:23:31.473Z,75.67
2019-05-09T01:24:35.783Z,76.47
2019-05-09T01:25:40.103Z,76.47
2019-05-09T01:26:44.397Z,76.39
2019-05-09T01:27:48.702Z,78.15
2019-05-09T01:28:53.769Z,77.07
2019-05-09T01:29:57.341Z,79.75
2019-05-09T01:31:03.750Z,79.30
2019-05-09T01:32:05.993Z,78.77
2019-05-09T01:33:10.339Z,77.44
2019-05-09T01:34:14.664Z,76.72
2019-05-09T01:35:18.976Z,79.30
2019-05-09T01:36:23.571Z,78.08
2019-05-09T01:37:27.540Z,78.77
2019-05-09T01:38:33.930Z,78.74
2019-05-09T01:39:36.200Z,77.66
2019-05-09T01:40:40.540Z,77.64
2019-05-09T01:41:44.864Z,77.40
2019-05-09T01:42:49.205Z,78.56
2019-05-09T01:43:53.801Z,79.18
2019-05-09T01:44:57.925Z,78.49
2019-05-09T01:46:03.707Z,79.20
2019-05-09T01:47:06.542Z,79.33
2019-05-09T01:48:10.886Z,79.11
2019-05-09T01:49:18.229Z,79.65
2019-05-09T01:50:23.305Z,79.33
2019-05-09T01:51:25.804Z,80.07
2019-05-09T01:52:30.152Z,82.17
2019-05-09T01:53:34.466Z,81.05
2019-05-09T01:54:38.849Z,82.32
2019-05-09T01:55:43.278Z,81.90
2019-05-09T01:56:47.432Z,81.74
2019-05-09T01:57:53.862Z,83.11
2019-05-09T01:58:56.081Z,82.99
2019-05-09T02:00:00.376Z,82.28
2019-05-09T02:01:04.631Z,80.89
2019-05-09T02:02:09.191Z,80.82
2019-05-09T02:03:13.933Z,81.47
2019-05-09T02:04:17.468Z,81.49
2019-05-09T02:05:23.963Z,81.86
2019-05-09T02:06:26.133Z,83.00
2019-05-09T02:07:30.429Z,81.28
2019-05-09T02:08:34.806Z,80.43
2019-05-09T02:09:39.097Z,80.67
2019-05-09T02:10:44.254Z,80.59
2019-05-09T02:11:47.726Z,80.78
2019-05-09T02:12:53.795Z,82.03
2019-05-09T02:13:56.217Z,80.73
2019-05-09T02:15:00.610Z,80.56
2019-05-09T02:16:04.910Z,79.56
2019-05-09T02:17:09.233Z,80.52
2019-05-09T02:18:13.816Z,79.94
2019-05-09T02:19:17.871Z,79.75
2019-05-09T02:20:24.143Z,79.31
2019-05-09T02:21:26.468Z,80.30
2019-05-09T02:22:30.828Z,79.31
2019-05-09T02:23:35.029Z,79.89
2019-05-09T02:24:39.424Z,79.85
2019-05-09T02:25:43.885Z,79.84
2019-05-09T02:26:47.929Z,79.90
2019-05-09T02:27:52.305Z,79.80
2019-05-09T02:28:56.530Z,79.58
2019-05-09T02:30:00.861Z,80.59
2019-05-09T02:31:05.613Z,80.28
2019-05-09T02:32:09.408Z,80.13
2019-05-09T02:33:14.738Z,80.90
2019-05-09T02:34:18.101Z,80.14
2019-05-09T02:35:22.365Z,81.07
2019-05-09T02:36:29.578Z,80.74
2019-05-09T02:37:30.883Z,81.68
2019-05-09T02:38:35.211Z,81.03
2019-05-09T02:39:39.520Z,80.60
2019-05-09T02:40:43.874Z,80.29
2019-05-09T02:42:00.803Z,79.84
2019-05-09T02:42:52.414Z,81.08
2019-05-09T02:43:58.574Z,80.53
2019-05-09T02:45:01.054Z,81.33
2019-05-09T02:46:05.394Z,81.73
2019-05-09T02:47:09.680Z,81.89
2019-05-09T02:48:14.024Z,82.18
2019-05-09T02:49:19.142Z,81.10
2019-05-09T02:50:22.677Z,81.77
2019-05-09T02:51:29.195Z,81.62
2019-05-09T02:52:31.275Z,81.04
2019-05-09T02:53:35.407Z,81.50
2019-05-09T02:54:39.892Z,83.24
2019-05-09T02:55:44.089Z,82.62
2019-05-09T02:56:49.279Z,81.53
2019-05-09T02:57:52.769Z,81.05
2019-05-09T02:58:58.927Z,81.06
2019-05-09T03:00:01.513Z,80.87
2019-05-09T03:01:08.233Z,81.70
2019-05-09T03:02:10.027Z,81.45
2019-05-09T03:03:14.276Z,81.58
2019-05-09T03:04:19.015Z,80.91
2019-05-09T03:05:22.870Z,80.59
2019-05-09T03:06:28.390Z,80.53
2019-05-09T03:07:31.564Z,80.81
2019-05-09T03:08:38.334Z,81.33
2019-05-09T03:09:40.178Z,81.06
2019-05-09T03:10:44.509Z,81.51
2019-05-09T03:11:48.931Z,81.77
2019-05-09T03:12:53.161Z,80.90
2019-05-09T03:13:58.684Z,81.83
2019-05-09T03:15:01.783Z,81.01
2019-05-09T03:16:08.587Z,82.13
2019-05-09T03:17:10.373Z,81.80
2019-05-09T03:18:14.610Z,82.16
2019-05-09T03:19:19.598Z,81.51
2019-05-09T03:20:23.341Z,81.23
2019-05-09T03:21:30.657Z,81.65
2019-05-09T03:22:34.023Z,81.85
2019-05-09T03:23:39.045Z,81.64
2019-05-09T03:24:42.647Z,81.06
2019-05-09T03:25:48.438Z,80.85
2019-05-09T03:26:51.287Z,80.84
2019-05-09T03:27:58.535Z,81.47
2019-05-09T03:28:59.862Z,81.56
2019-05-09T03:30:04.172Z,81.22
2019-05-09T03:31:09.679Z,81.34
2019-05-09T03:32:12.809Z,81.62
2019-05-09T03:33:20.137Z,81.42
2019-05-09T03:34:21.302Z,81.56
2019-05-09T03:35:27.403Z,82.62
2019-05-09T03:36:29.916Z,83.18
2019-05-09T03:37:34.239Z,83.94
2019-05-09T03:38:38.489Z,84.08
2019-05-09T03:39:42.805Z,83.88
2019-05-09T03:40:47.657Z,82.54
2019-05-09T03:41:51.348Z,82.48
2019-05-09T03:42:57.456Z,82.53
2019-05-09T03:44:00.005Z,82.44
2019-05-09T03:45:04.338Z,83.43
2019-05-09T03:46:08.637Z,83.23
2019-05-09T03:47:12.935Z,83.81
2019-05-09T03:48:18.016Z,83.06
2019-05-09T03:49:21.400Z,82.38
2019-05-09T03:50:27.863Z,83.02
2019-05-09T03:51:30.159Z,83.55
2019-05-09T03:52:34.370Z,83.70
2019-05-09T03:53:38.738Z,83.79
2019-05-09T03:54:42.968Z,83.33
2019-05-09T03:55:47.539Z,82.90
2019-05-09T03:56:51.656Z,82.46
2019-05-09T03:57:57.936Z,82.10
2019-05-09T03:59:00.267Z,82.06
2019-05-09T04:00:04.595Z,83.04
2019-05-09T04:01:10.861Z,83.24
2019-05-09T04:02:13.263Z,82.75
2019-05-09T04:03:19.887Z,82.85
2019-05-09T04:04:21.852Z,82.81
2019-05-09T04:05:27.335Z,82.50
2019-05-09T04:06:30.493Z,83.10
2019-05-09T04:07:34.885Z,82.83
2019-05-09T04:08:39.191Z,82.73
2019-05-09T04:09:43.499Z,83.73
2019-05-09T04:10:50.293Z,82.69
2019-05-09T04:11:52.147Z,82.55
2019-05-09T04:12:59.403Z,82.78
2019-05-09T04:14:00.789Z,82.52
2019-05-09T04:15:05.034Z,82.45
2019-05-09T04:16:09.267Z,82.36
2019-05-09T04:17:13.759Z,82.02
2019-05-09T04:18:18.026Z,81.97
2019-05-09T04:19:22.333Z,81.99
2019-05-09T04:20:27.731Z,82.33
2019-05-09T04:21:31.106Z,82.40
2019-05-09T04:22:35.411Z,82.31
2019-05-09T04:23:39.791Z,82.03
2019-05-09T04:24:44.087Z,81.99
2019-05-09T04:25:48.412Z,82.18
2019-05-09T04:26:52.830Z,82.20
2019-05-09T04:27:58.311Z,81.55
2019-05-09T04:29:01.485Z,81.47
2019-05-09T04:30:08.814Z,81.54
2019-05-09T04:31:10.140Z,81.88
2019-05-09T04:32:14.481Z,82.23
2019-05-09T04:33:18.727Z,81.70
2019-05-09T04:34:23.073Z,82.05
2019-05-09T04:35:27.959Z,81.94
2019-05-09T04:36:31.739Z,82.05
2019-05-09T04:37:38.005Z,81.89
2019-05-09T04:38:40.398Z,81.87
2019-05-09T04:39:44.571Z,82.09
2019-05-09T04:40:48.977Z,82.21
2019-05-09T04:41:55.110Z,81.80
2019-05-09T04:43:10.924Z,82.80
2019-05-09T04:44:05.037Z,82.75
2019-05-09T04:45:10.009Z,82.34
2019-05-09T04:46:13.022Z,82.55
2019-05-09T04:47:14.898Z,82.06
2019-05-09T04:48:23.906Z,81.98
2019-05-09T04:49:23.460Z,82.01
2019-05-09T04:50:28.019Z,81.97
2019-05-09T04:51:32.130Z,82.22
2019-05-09T04:52:39.880Z,82.89
2019-05-09T04:53:40.847Z,82.30
2019-05-09T04:54:45.160Z,82.51
2019-05-09T04:55:49.490Z,82.01
2019-05-09T04:56:54.023Z,82.16
2019-05-09T04:58:00.214Z,82.05
2019-05-09T04:59:02.427Z,81.95
2019-05-09T05:00:07.561Z,82.19
2019-05-09T05:01:11.054Z,82.12
2019-05-09T05:02:15.483Z,81.88
2019-05-09T05:03:19.834Z,82.93
2019-05-09T05:04:24.072Z,83.06
2019-05-09T05:05:28.498Z,82.97
2019-05-09T05:06:32.741Z,83.04
2019-05-09T05:07:37.629Z,82.56
2019-05-09T05:08:41.473Z,82.16
2019-05-09T05:09:45.772Z,82.53
2019-05-09T05:10:50.096Z,82.45
2019-05-09T05:11:54.459Z,82.34
2019-05-09T05:12:58.739Z,82.21
2019-05-09T05:14:03.130Z,81.99
2019-05-09T05:15:10.415Z,82.26
2019-05-09T05:16:13.905Z,82.95
2019-05-09T05:17:18.332Z,83.28
2019-05-09T05:18:22.652Z,84.03
2019-05-09T05:19:28.504Z,83.40
2019-05-09T05:20:31.383Z,82.97
2019-05-09T05:21:37.749Z,83.58
2019-05-09T05:22:39.996Z,83.44
2019-05-09T05:23:44.378Z,83.48
2019-05-09T05:24:49.054Z,82.92
2019-05-09T05:25:53.164Z,82.70
2019-05-09T05:26:58.537Z,82.67
2019-05-09T05:28:08.723Z,83.26
2019-05-09T05:29:11.733Z,83.69
2019-05-09T05:30:18.014Z,82.91
2019-05-09T05:31:21.472Z,82.75
2019-05-09T05:32:28.061Z,82.71
2019-05-09T05:33:29.900Z,83.04
2019-05-09T05:34:34.242Z,82.74
2019-05-09T05:35:38.538Z,82.37
2019-05-09T05:36:42.803Z,82.27
2019-05-09T05:37:47.749Z,82.66
2019-05-09T05:38:51.526Z,82.55
2019-05-09T05:39:58.190Z,82.37
2019-05-09T05:41:00.244Z,82.30
2019-05-09T05:42:05.373Z,82.48
2019-05-09T05:43:09.389Z,82.47
2019-05-09T05:44:13.760Z,82.02
2019-05-09T05:45:18.309Z,81.89
2019-05-09T05:46:23.543Z,81.77
2019-05-09T05:47:29.321Z,82.47
2019-05-09T05:48:32.343Z,82.58
2019-05-09T05:49:38.451Z,82.51
2019-05-09T05:50:41.092Z,82.22
2019-05-09T05:51:45.478Z,82.14
2019-05-09T05:52:49.738Z,82.03
2019-05-09T05:53:54.009Z,81.65
2019-05-09T05:54:58.521Z,81.57
2019-05-09T05:56:02.841Z,81.68
2019-05-09T05:57:08.384Z,82.04
2019-05-09T05:58:11.434Z,81.69
2019-05-09T05:59:17.813Z,81.59
2019-05-09T06:00:20.267Z,81.76
2019-05-09T06:01:24.603Z,81.72
2019-05-09T06:02:28.915Z,82.11
2019-05-09T06:03:37.691Z,82.62
2019-05-09T06:04:39.455Z,82.37
2019-05-09T06:05:43.718Z,81.87
2019-05-09T06:06:48.323Z,82.19
2019-05-09T06:07:52.258Z,82.63
2019-05-09T06:08:57.964Z,82.02
2019-05-09T06:10:00.828Z,82.09
2019-05-09T06:11:09.510Z,81.68
2019-05-09T06:12:09.398Z,81.94
2019-05-09T06:13:13.647Z,81.73
2019-05-09T06:14:18.589Z,82.02
2019-05-09T06:15:22.338Z,81.79
2019-05-09T06:16:28.126Z,81.62
2019-05-09T06:17:30.816Z,81.56
2019-05-09T06:18:35.149Z,81.58
2019-05-09T06:19:39.366Z,82.20
2019-05-09T06:20:45.618Z,81.81
2019-05-09T06:21:49.244Z,81.31
2019-05-09T06:22:55.218Z,81.54
2019-05-09T06:23:58.659Z,81.36
2019-05-09T06:25:02.826Z,81.84
2019-05-09T06:26:09.868Z,81.31
2019-05-09T06:27:11.386Z,81.14
2019-05-09T06:28:18.030Z,81.61
2019-05-09T06:29:19.976Z,81.86
2019-05-09T06:30:24.304Z,81.61
2019-05-09T06:31:28.621Z,81.53
2019-05-09T06:32:32.820Z,81.40
2019-05-09T06:33:44.894Z,81.35
2019-05-09T06:34:42.257Z,81.27
2019-05-09T06:35:47.984Z,81.47
2019-05-09T06:36:49.917Z,81.05
2019-05-09T06:37:54.277Z,80.97
2019-05-09T06:38:58.921Z,81.00
2019-05-09T06:40:02.738Z,80.78
2019-05-09T06:41:08.850Z,82.25
2019-05-09T06:42:11.248Z,82.39
2019-05-09T06:43:15.516Z,81.91
2019-05-09T06:44:20.826Z,82.10
2019-05-09T06:45:24.104Z,82.19
2019-05-09T06:46:28.442Z,81.72
2019-05-09T06:47:32.699Z,81.44
2019-05-09T06:48:37.834Z,81.44
2019-05-09T06:49:41.387Z,81.59
2019-05-09T06:50:45.658Z,81.00
2019-05-09T06:51:50.031Z,81.25
2019-05-09T06:52:54.273Z,80.81
2019-05-09T06:53:58.656Z,80.85
2019-05-09T06:55:02.928Z,80.70
2019-05-09T06:56:07.532Z,80.25
2019-05-09T06:57:11.589Z,80.13
2019-05-09T06:58:18.324Z,80.19
2019-05-09T06:59:20.130Z,80.19
2019-05-09T07:00:24.419Z,80.00
2019-05-09T07:01:28.716Z,79.91
2019-05-09T07:02:32.999Z,80.18
2019-05-09T07:03:37.563Z,79.89
2019-05-09T07:04:41.541Z,79.74
2019-05-09T07:05:48.058Z,79.65
2019-05-09T07:06:50.130Z,79.61
2019-05-09T07:07:54.397Z,80.19
2019-05-09T07:08:58.682Z,79.93
2019-05-09T07:10:09.050Z,79.77
2019-05-09T07:11:11.955Z,79.74
2019-05-09T07:12:18.072Z,79.38
2019-05-09T07:13:20.548Z,79.35
2019-05-09T07:14:28.643Z,79.16
2019-05-09T07:15:29.138Z,78.95
2019-05-09T07:16:33.395Z,78.97
2019-05-09T07:17:38.707Z,78.95
2019-05-09T07:18:42.031Z,78.96
2019-05-09T07:19:48.564Z,78.93
2019-05-09T07:20:50.618Z,79.51
2019-05-09T07:21:54.952Z,79.15
2019-05-09T07:22:59.252Z,79.49
2019-05-09T07:24:03.516Z,79.01
2019-05-09T07:25:10.885Z,79.09
2019-05-09T07:26:12.161Z,79.06
2019-05-09T07:27:17.936Z,79.98
2019-05-09T07:28:20.709Z,79.31
2019-05-09T07:29:24.953Z,78.98
2019-05-09T07:30:29.252Z,78.98
2019-05-09T07:31:33.548Z,78.63
2019-05-09T07:32:38.240Z,78.59
2019-05-09T07:33:42.180Z,78.61
2019-05-09T07:34:47.417Z,78.15
2019-05-09T07:35:50.814Z,78.25
2019-05-09T07:36:55.134Z,77.96
2019-05-09T07:37:59.415Z,77.91
2019-05-09T07:39:03.723Z,78.10
2019-05-09T07:40:08.576Z,77.86
2019-05-09T07:41:12.337Z,77.71
2019-05-09T07:42:18.006Z,77.43
2019-05-09T07:43:20.969Z,77.17
2019-05-09T07:44:25.279Z,77.03
2019-05-09T07:45:29.566Z,76.93
2019-05-09T07:46:33.879Z,77.35
2019-05-09T07:47:38.876Z,77.13
2019-05-09T07:48:42.535Z,77.84
2019-05-09T07:49:48.138Z,77.97
2019-05-09T07:50:51.106Z,77.89
2019-05-09T07:51:55.415Z,77.23
2019-05-09T07:52:59.773Z,76.88
2019-05-09T07:54:18.236Z,76.69
2019-05-09T07:55:09.059Z,76.65
2019-05-09T07:56:12.784Z,76.45
2019-05-09T07:57:18.188Z,76.25
2019-05-09T07:58:21.448Z,75.87
2019-05-09T07:59:27.466Z,75.80
2019-05-09T08:00:29.971Z,75.97
2019-05-09T08:01:34.367Z,76.08
2019-05-09T08:02:38.878Z,76.18
2019-05-09T08:03:42.939Z,76.30
2019-05-09T08:04:48.856Z,76.48
2019-05-09T08:05:51.498Z,77.17
2019-05-09T08:06:57.665Z,77.23
2019-05-09T08:08:00.110Z,77.85
2019-05-09T08:09:04.434Z,77.98
2019-05-09T08:10:11.217Z,77.63
2019-05-09T08:11:13.025Z,77.30
2019-05-09T08:12:18.044Z,77.21
2019-05-09T08:13:21.738Z,77.17
2019-05-09T08:14:28.128Z,77.65
2019-05-09T08:15:30.250Z,77.55
2019-05-09T08:16:34.538Z,77.11
2019-05-09T08:17:38.813Z,77.93
2019-05-09T08:18:43.163Z,77.53
2019-05-09T08:19:48.475Z,77.23
2019-05-09T08:20:51.842Z,76.73
2019-05-09T08:21:57.482Z,76.50
2019-05-09T08:23:02.048Z,76.97
2019-05-09T08:24:04.796Z,77.03
2019-05-09T08:25:09.196Z,76.95
2019-05-09T08:26:13.432Z,76.55
2019-05-09T08:27:17.725Z,76.30
2019-05-09T08:28:21.989Z,76.31
2019-05-09T08:29:28.168Z,76.16
2019-05-09T08:30:35.884Z,76.18
2019-05-09T08:31:34.968Z,76.13
2019-05-09T08:32:39.237Z,76.13
2019-05-09T08:33:43.543Z,76.19
2019-05-09T08:34:48.323Z,76.36
2019-05-09T08:35:52.811Z,76.51
2019-05-09T08:36:57.999Z,76.42
2019-05-09T08:38:00.769Z,76.21
2019-05-09T08:39:05.001Z,76.16
2019-05-09T08:40:09.409Z,76.37
2019-05-09T08:41:13.723Z,76.31
2019-05-09T08:42:20.073Z,76.10
2019-05-09T08:43:22.361Z,75.76
2019-05-09T08:44:30.556Z,75.59
2019-05-09T08:45:31.739Z,75.71
2019-05-09T08:46:37.575Z,75.72
2019-05-09T08:47:39.530Z,75.67
2019-05-09T08:48:43.900Z,74.40
2019-05-09T08:49:49.613Z,74.60
2019-05-09T08:50:52.449Z,74.64
2019-05-09T08:52:12.001Z,75.68
2019-05-09T08:53:01.126Z,75.54
2019-05-09T08:54:05.415Z,74.83
2019-05-09T08:55:09.752Z,74.77
2019-05-09T08:56:14.009Z,74.89
2019-05-09T08:57:18.426Z,75.45
2019-05-09T08:58:22.648Z,74.49
2019-05-09T08:59:27.613Z,74.86
2019-05-09T09:00:31.242Z,74.69
2019-05-09T09:01:54.410Z,74.59
2019-05-09T09:02:39.840Z,74.47
2019-05-09T09:03:44.162Z,74.63
2019-05-09T09:04:49.058Z,74.51
2019-05-09T09:05:52.818Z,74.41
2019-05-09T09:06:57.728Z,74.83
2019-05-09T09:08:01.534Z,74.88
2019-05-09T09:09:07.903Z,74.86
2019-05-09T09:10:10.090Z,74.90
2019-05-09T09:11:14.375Z,75.65
2019-05-09T09:12:27.147Z,74.98
2019-05-09T09:13:23.107Z,74.24
2019-05-09T09:14:28.010Z,73.42
2019-05-09T09:15:55.595Z,73.75
2019-05-09T09:16:37.879Z,74.07
2019-05-09T09:17:40.263Z,73.51
2019-05-09T09:18:44.690Z,73.43
2019-05-09T09:19:48.954Z,73.42
2019-05-09T09:20:53.300Z,73.07
2019-05-09T09:22:00.472Z,72.64
2019-05-09T09:23:01.926Z,72.79
2019-05-09T09:24:08.575Z,72.85
2019-05-09T09:25:10.541Z,72.64
2019-05-09T09:26:14.919Z,72.93
2019-05-09T09:27:19.283Z,72.92
2019-05-09T09:28:23.584Z,73.02
2019-05-09T09:29:28.443Z,73.25
2019-05-09T09:30:32.279Z,73.45
2019-05-09T09:31:37.854Z,73.41
2019-05-09T09:32:40.917Z,73.83
2019-05-09T09:33:45.166Z,73.74
2019-05-09T09:34:49.487Z,72.20
2019-05-09T09:35:53.886Z,73.31
2019-05-09T09:37:03.809Z,72.80
2019-05-09T09:38:02.465Z,72.64
2019-05-09T09:39:08.035Z,72.53
2019-05-09T09:40:11.252Z,71.98
2019-05-09T09:41:17.990Z,72.12
2019-05-09T09:42:20.346Z,72.07
2019-05-09T09:43:24.234Z,71.78
2019-05-09T09:44:28.882Z,71.63
2019-05-09T09:45:32.871Z,71.43
2019-05-09T09:46:37.501Z,71.48
2019-05-09T09:47:41.535Z,71.78
2019-05-09T09:48:48.928Z,72.19
2019-05-09T09:49:55.110Z,71.50
2019-05-09T09:50:57.953Z,71.68
2019-05-09T09:52:01.071Z,71.91
2019-05-09T09:53:08.282Z,72.08
2019-05-09T09:54:09.658Z,71.44
2019-05-09T09:55:14.324Z,71.19
2019-05-09T09:56:22.418Z,70.89
2019-05-09T09:57:22.839Z,70.46
2019-05-09T09:58:27.430Z,69.84
2019-05-09T09:59:31.489Z,69.83
2019-05-09T10:00:38.101Z,68.67
2019-05-09T10:01:40.129Z,69.11
2019-05-09T10:02:44.537Z,68.67
2019-05-09T10:03:48.913Z,69.23
2019-05-09T10:04:53.229Z,69.00
2019-05-09T10:05:57.893Z,69.39
2019-05-09T10:07:01.955Z,68.81
2019-05-09T10:08:08.886Z,68.68
2019-05-09T10:09:10.547Z,66.98
2019-05-09T10:10:14.846Z,68.11
2019-05-09T10:11:19.169Z,68.83
2019-05-09T10:12:23.521Z,68.29
2019-05-09T10:13:28.702Z,68.81
2019-05-09T10:14:32.194Z,69.22
2019-05-09T10:15:38.392Z,68.70
2019-05-09T10:16:40.887Z,68.57
2019-05-09T10:17:47.571Z,68.27
2019-05-09T10:18:49.582Z,68.85
2019-05-09T10:19:53.930Z,69.14
2019-05-09T10:20:58.663Z,67.91
2019-05-09T10:22:02.620Z,68.03
2019-05-09T10:23:14.940Z,66.70
2019-05-09T10:24:11.259Z,66.00
2019-05-09T10:25:18.121Z,65.87
2019-05-09T10:26:19.934Z,66.68
2019-05-09T10:27:24.262Z,66.66
2019-05-09T10:28:30.047Z,66.77
2019-05-09T10:29:32.917Z,66.30
2019-05-09T10:30:38.284Z,66.73
2019-05-09T10:31:41.625Z,66.82
2019-05-09T10:32:47.635Z,66.92
2019-05-09T10:33:50.427Z,66.97
2019-05-09T10:34:54.648Z,67.13
2019-05-09T10:36:04.088Z,67.58
2019-05-09T10:37:03.473Z,67.63
2019-05-09T10:38:08.725Z,67.50
2019-05-09T10:39:12.104Z,66.07
2019-05-09T10:40:16.534Z,66.96
2019-05-09T10:41:20.866Z,66.10
2019-05-09T10:42:25.341Z,65.51
2019-05-09T10:43:38.449Z,66.64
2019-05-09T10:44:34.125Z,65.99
2019-05-09T10:45:40.766Z,64.33
2019-05-09T10:46:52.504Z,65.22
2019-05-09T10:47:48.277Z,66.27
2019-05-09T10:48:51.553Z,65.76
2019-05-09T10:49:58.033Z,66.27
2019-05-09T10:51:04.188Z,66.42
2019-05-09T10:52:04.667Z,66.75
2019-05-09T10:53:08.925Z,65.95
2019-05-09T10:54:13.346Z,65.90
2019-05-09T10:55:18.076Z,65.96
2019-05-09T10:56:22.055Z,65.44
2019-05-09T10:57:30.950Z,64.72
2019-05-09T10:58:30.843Z,64.60
2019-05-09T10:59:37.546Z,64.96
2019-05-09T11:00:39.834Z,64.08
2019-05-09T11:01:43.923Z,64.08
2019-05-09T11:02:48.465Z,64.70
2019-05-09T11:03:52.557Z,62.40
2019-05-09T11:04:57.636Z,63.48
2019-05-09T11:06:01.251Z,64.67
2019-05-09T11:07:08.102Z,64.13
2019-05-09T11:08:09.959Z,63.14
2019-05-09T11:09:14.392Z,63.34
2019-05-09T11:10:25.658Z,63.14
2019-05-09T11:11:23.103Z,62.94
2019-05-09T11:12:27.739Z,63.93
2019-05-09T11:13:31.803Z,63.76
2019-05-09T11:14:37.537Z,64.31
2019-05-09T11:15:40.666Z,64.19
2019-05-09T11:16:47.456Z,62.78
2019-05-09T11:17:49.295Z,62.45
2019-05-09T11:18:53.606Z,63.87
2019-05-09T11:19:58.842Z,63.78
2019-05-09T11:21:02.242Z,63.42
2019-05-09T11:22:08.094Z,63.64
2019-05-09T11:23:10.950Z,63.86
2019-05-09T11:24:15.434Z,64.00
2019-05-09T11:25:19.747Z,63.05
2019-05-09T11:26:24.058Z,64.28
2019-05-09T11:27:29.295Z,63.20
2019-05-09T11:28:35.677Z,61.63
2019-05-09T11:29:39.189Z,62.67
2019-05-09T11:30:43.442Z,62.02
2019-05-09T11:31:47.862Z,60.77
2019-05-09T11:32:52.097Z,60.80
2019-05-09T11:33:57.843Z,62.38
2019-05-09T11:35:00.850Z,60.93
2019-05-09T11:36:05.247Z,61.44
2019-05-09T11:37:09.501Z,61.47
2019-05-09T11:38:13.986Z,62.13
2019-05-09T11:39:35.286Z,62.13
2019-05-09T11:40:22.588Z,62.16
2019-05-09T11:41:29.430Z,62.53
2019-05-09T11:42:33.410Z,62.21
2019-05-09T11:43:35.587Z,62.22
2019-05-09T11:44:39.971Z,62.16
2019-05-09T11:45:44.307Z,62.02
2019-05-09T11:46:48.713Z,62.84
2019-05-09T11:47:52.984Z,62.00
2019-05-09T11:48:58.506Z,62.15
2019-05-09T11:50:01.645Z,61.13
2019-05-09T11:51:06.007Z,60.18
2019-05-09T11:52:10.313Z,60.80
2019-05-09T11:53:14.756Z,62.04
2019-05-09T11:54:19.621Z,61.96
2019-05-09T11:55:32.386Z,62.19
2019-05-09T11:56:27.703Z,62.54
2019-05-09T11:57:31.986Z,61.33
2019-05-09T11:58:37.939Z,62.42
2019-05-09T11:59:40.737Z,62.05
2019-05-09T12:00:45.079Z,61.55
2019-05-09T12:01:49.433Z,62.35
2019-05-09T12:02:54.811Z,61.49
2019-05-09T12:03:58.698Z,61.97
2019-05-09T12:05:03.035Z,61.76
2019-05-09T12:06:08.119Z,62.27
2019-05-09T12:07:11.720Z,62.19
2019-05-09T12:08:17.719Z,62.11
2019-05-09T12:09:20.474Z,61.79
2019-05-09T12:10:24.709Z,61.98
2019-05-09T12:11:29.078Z,59.43
2019-05-09T12:12:33.488Z,59.92
2019-05-09T12:13:38.087Z,60.31
2019-05-09T12:14:42.234Z,60.41
2019-05-09T12:15:48.881Z,60.90
2019-05-09T12:16:50.888Z,61.74
2019-05-09T12:18:01.674Z,62.11
2019-05-09T12:18:59.585Z,62.12
2019-05-09T12:20:12.339Z,61.50
2019-05-09T12:21:08.590Z,61.27
2019-05-09T12:22:12.656Z,59.23
2019-05-09T12:23:19.988Z,60.16
2019-05-09T12:24:21.372Z,60.24
2019-05-09T12:25:28.070Z,60.31
2019-05-09T12:26:30.086Z,59.93
2019-05-09T12:27:34.414Z,60.06
2019-05-09T12:28:38.818Z,60.68
2019-05-09T12:29:43.147Z,60.83
2019-05-09T12:30:48.986Z,60.15
2019-05-09T12:31:51.839Z,59.65
2019-05-09T12:32:58.614Z,59.58
2019-05-09T12:34:00.535Z,58.62
2019-05-09T12:35:04.887Z,60.09
2019-05-09T12:36:09.438Z,60.34
2019-05-09T12:37:13.589Z,60.35
2019-05-09T12:38:18.406Z,59.88
2019-05-09T12:39:22.297Z,60.21
2019-05-09T12:40:26.669Z,59.51
2019-05-09T12:41:31.945Z,56.59
2019-05-09T12:42:35.389Z,58.30
2019-05-09T12:43:39.806Z,59.11
2019-05-09T12:44:44.129Z,59.11
2019-05-09T12:45:48.485Z,58.67
2019-05-09T12:46:52.873Z,53.43
2019-05-09T12:48:10.032Z,56.53
2019-05-09T12:49:01.638Z,56.84
2019-05-09T12:50:08.423Z,55.79
2019-05-09T12:51:10.336Z,56.28
2019-05-09T12:52:14.672Z,57.61
2019-05-09T12:53:19.157Z,58.45
2019-05-09T12:54:23.398Z,56.63
2019-05-09T12:55:30.745Z,57.85
2019-05-09T12:56:34.204Z,58.62
2019-05-09T12:57:38.833Z,58.28
2019-05-09T12:58:42.855Z,58.60
2019-05-09T12:59:52.344Z,58.70
2019-05-09T13:00:52.015Z,58.41
2019-05-09T13:01:58.058Z,58.86
2019-05-09T13:03:00.232Z,58.88
2019-05-09T13:04:04.564Z,57.20
2019-05-09T13:05:08.911Z,57.28
2019-05-09T13:06:13.300Z,58.01
2019-05-09T13:07:17.756Z,57.10
2019-05-09T13:08:22.118Z,57.75
2019-05-09T13:09:28.609Z,58.20
2019-05-09T13:10:30.744Z,58.69
2019-05-09T13:11:35.113Z,57.09
2019-05-09T13:12:39.448Z,58.45
2019-05-09T13:13:43.884Z,57.81
2019-05-09T13:14:48.677Z,58.69
2019-05-09T13:15:52.545Z,58.78
2019-05-09T13:16:57.463Z,58.62
2019-05-09T13:18:01.201Z,59.17
2019-05-09T13:19:05.534Z,59.35
2019-05-09T13:20:09.878Z,58.52
2019-05-09T13:21:14.275Z,57.42
2019-05-09T13:22:18.676Z,57.99
2019-05-09T13:23:22.912Z,58.80
2019-05-09T13:24:28.336Z,59.27
2019-05-09T13:25:31.674Z,59.48
2019-05-09T13:26:38.293Z,58.99
2019-05-09T13:27:40.328Z,59.02
2019-05-09T13:28:44.618Z,59.41
2019-05-09T13:29:49.639Z,59.31
2019-05-09T13:30:53.402Z,58.40
2019-05-09T13:31:57.844Z,58.83
2019-05-09T13:33:02.048Z,59.41
2019-05-09T13:34:08.059Z,59.59
2019-05-09T13:35:10.699Z,59.68
2019-05-09T13:36:15.009Z,59.68
2019-05-09T13:37:19.378Z,59.46
2019-05-09T13:38:23.719Z,59.53
2019-05-09T13:39:28.165Z,59.31
2019-05-09T13:40:32.588Z,58.75
2019-05-09T13:41:37.629Z,59.30
2019-05-09T13:42:41.414Z,59.53
2019-05-09T13:43:56.842Z,58.95
2019-05-09T13:44:50.056Z,58.00
2019-05-09T13:45:54.489Z,58.38
2019-05-09T13:46:58.790Z,59.16
2019-05-09T13:48:03.147Z,59.38
2019-05-09T13:49:12.445Z,59.50